createdAt,value
2023-10-02T00:24:18.985Z,1010.97
2023-10-02T00:54:36.660Z,1010.8639999999999
2023-10-02T01:24:54.462Z,1010.9639999999999
2023-10-02T01:55:13.383Z,1010.815
2023-10-02T02:25:31.700Z,1010.735
2023-10-02T02:55:49.259Z,1010.837
2023-10-02T03:26:06.207Z,1010.716
2023-10-02T04:26:42.341Z,1010.5039999999999
2023-10-02T04:57:01.880Z,1010.7080000000001
2023-10-02T05:27:19.244Z,1010.575
2023-10-02T05:57:36.777Z,1010.752
2023-10-02T06:27:58.429Z,1010.923
2023-10-02T06:58:25.472Z,1010.921
2023-10-02T07:28:54.118Z,1010.9
2023-10-02T07:59:17.755Z,1011.039
2023-10-02T08:29:43.202Z,1011.023
2023-10-02T09:30:28.507Z,1010.801
2023-10-02T10:00:50.210Z,1010.563
2023-10-02T10:31:11.328Z,1010.5369999999999
2023-10-02T11:01:29.601Z,1010.38
2023-10-02T11:31:49.628Z,1010.029
2023-10-02T12:02:07.642Z,1009.633
2023-10-02T12:32:17.600Z,1009.4019999999999
2023-10-02T13:02:23.478Z,1008.932
2023-10-02T13:32:36.130Z,1008.58
2023-10-02T14:02:54.294Z,1008.262
2023-10-02T14:33:11.168Z,1007.975
2023-10-02T15:03:29.281Z,1007.6519999999999
2023-10-02T15:33:53.026Z,1007.4639999999999
2023-10-02T16:04:12.379Z,1007.096
2023-10-02T16:34:31.065Z,1006.8889999999999
2023-10-02T17:04:47.893Z,1006.7660000000001
2023-10-02T17:35:04.339Z,1006.985
2023-10-02T18:05:20.508Z,1006.813
2023-10-02T18:35:35.995Z,1006.82
2023-10-02T19:05:51.779Z,1006.557
2023-10-02T19:36:08.178Z,1006.4860000000001
2023-10-02T20:06:26.827Z,1006.064
2023-10-02T20:36:42.878Z,1005.7189999999999
2023-10-02T21:07:01.763Z,1005.551
2023-10-02T21:37:19.283Z,1005.247
2023-10-02T22:07:36.218Z,1005.092
2023-10-02T22:37:56.468Z,1004.97
2023-10-02T23:08:17.089Z,1004.563
2023-10-02T23:38:35.293Z,1004.3639999999999
